createdAt,value
2018-08-20T00:01:37.203Z,12.63
2018-08-20T00:04:09.399Z,14.03
2018-08-20T00:06:51.108Z,12.60
2018-08-20T00:09:21.370Z,12.53
2018-08-20T00:11:51.590Z,12.83
2018-08-20T00:14:22.072Z,14.03
2018-08-20T00:16:50.797Z,11.47
2018-08-20T00:19:19.370Z,21.20
2018-08-20T00:21:48.009Z,15.80
2018-08-20T00:24:16.529Z,13.30
2018-08-20T00:26:45.126Z,13.23
2018-08-20T00:29:13.623Z,11.60
2018-08-20T00:31:42.294Z,11.93
2018-08-20T00:34:10.869Z,11.70
2018-08-20T00:36:39.431Z,11.87
2018-08-20T00:39:09.987Z,20.80
2018-08-20T00:41:38.894Z,12.40
2018-08-20T00:44:12.115Z,11.00
2018-08-20T00:46:41.473Z,13.20
2018-08-20T00:49:10.054Z,12.57
2018-08-20T00:51:38.594Z,17.50
2018-08-20T00:54:07.238Z,13.10
2018-08-20T00:56:36.078Z,11.50
2018-08-20T00:59:04.683Z,13.80
2018-08-20T01:01:33.948Z,16.00
2018-08-20T01:04:03.374Z,12.43
2018-08-20T01:06:32.443Z,14.87
2018-08-20T01:09:01.012Z,17.10
2018-08-20T01:11:29.589Z,10.90
2018-08-20T01:13:58.211Z,13.93
2018-08-20T01:16:27.524Z,13.70
2018-08-20T01:18:56.232Z,16.50
2018-08-20T01:21:24.898Z,12.00
2018-08-20T01:23:53.487Z,11.50
2018-08-20T01:26:21.978Z,14.63
2018-08-20T01:28:50.526Z,12.43
2018-08-20T01:31:19.001Z,10.27
2018-08-20T01:33:47.473Z,11.83
2018-08-20T01:36:15.993Z,9.67
2018-08-20T01:38:44.495Z,11.87
2018-08-20T01:41:13.796Z,7.97
2018-08-20T01:43:43.058Z,8.70
2018-08-20T01:46:11.590Z,12.73
2018-08-20T01:48:40.058Z,8.30
2018-08-20T01:51:08.619Z,8.70
2018-08-20T01:53:37.125Z,12.10
2018-08-20T01:56:05.631Z,8.80
2018-08-20T01:58:34.409Z,9.83
2018-08-20T02:01:03.000Z,12.43
2018-08-20T02:03:32.237Z,10.93
2018-08-20T02:06:00.804Z,10.40
2018-08-20T02:08:29.452Z,8.57
2018-08-20T02:10:58.053Z,8.00
2018-08-20T02:13:26.542Z,8.80
2018-08-20T02:15:55.033Z,8.87
2018-08-20T02:18:23.554Z,8.17
2018-08-20T02:20:52.319Z,7.33
2018-08-20T02:23:21.275Z,7.40
2018-08-20T02:25:49.754Z,13.80
2018-08-20T02:28:18.435Z,8.70
2018-08-20T02:30:46.906Z,10.43
2018-08-20T02:33:15.486Z,7.23
2018-08-20T02:35:43.999Z,7.30
2018-08-20T02:38:12.577Z,9.10
2018-08-20T02:40:41.146Z,7.40
2018-08-20T02:43:09.748Z,7.87
2018-08-20T02:45:38.261Z,13.27
2018-08-20T02:48:08.595Z,8.20
2018-08-20T02:50:37.145Z,10.23
2018-08-20T02:53:06.138Z,6.47
2018-08-20T02:55:34.606Z,7.20
2018-08-20T02:58:03.288Z,8.30
2018-08-20T03:00:31.833Z,9.37
2018-08-20T03:03:03.768Z,8.93
2018-08-20T03:05:33.326Z,11.63
2018-08-20T03:08:02.320Z,14.20
2018-08-20T03:10:30.844Z,7.97
2018-08-20T03:12:59.430Z,7.30
2018-08-20T03:15:27.924Z,8.73
2018-08-20T03:17:56.462Z,10.87
2018-08-20T03:20:25.122Z,9.30
2018-08-20T03:22:53.710Z,10.07
2018-08-20T03:25:22.232Z,9.93
2018-08-20T03:27:51.325Z,9.53
2018-08-20T03:30:19.946Z,9.77
2018-08-20T03:32:48.419Z,9.23
2018-08-20T03:35:16.981Z,8.90
2018-08-20T03:37:45.501Z,11.00
2018-08-20T03:40:14.205Z,10.27
2018-08-20T03:42:43.344Z,16.13
2018-08-20T03:45:12.130Z,13.03
2018-08-20T03:47:41.622Z,10.00
2018-08-20T03:50:13.275Z,11.40
2018-08-20T03:52:41.939Z,10.43
2018-08-20T03:55:10.483Z,10.03
2018-08-20T03:57:39.090Z,12.73
2018-08-20T04:00:09.530Z,11.87
2018-08-20T04:02:38.239Z,10.97
2018-08-20T04:05:06.822Z,8.53
2018-08-20T04:07:35.564Z,12.63
2018-08-20T04:10:04.197Z,9.70
2018-08-20T04:12:33.396Z,9.47
2018-08-20T04:15:01.883Z,11.13
2018-08-20T04:17:30.392Z,10.50
2018-08-20T04:19:58.923Z,24.77
2018-08-20T04:22:27.398Z,10.50
2018-08-20T04:24:55.946Z,8.13
2018-08-20T04:27:24.436Z,9.67
2018-08-20T04:29:52.976Z,9.77
2018-08-20T04:32:21.448Z,13.67
2018-08-20T04:34:49.982Z,12.87
2018-08-20T04:37:18.512Z,14.57
2018-08-20T04:39:47.840Z,15.87
2018-08-20T04:42:16.493Z,13.40
2018-08-20T04:44:45.202Z,17.90
2018-08-20T04:47:14.066Z,13.07
2018-08-20T04:49:42.618Z,13.30
2018-08-20T04:52:11.120Z,10.80
2018-08-20T04:54:39.673Z,9.00
2018-08-20T04:57:08.189Z,10.03
2018-08-20T04:59:36.700Z,13.20
2018-08-20T05:02:05.284Z,12.13
2018-08-20T05:04:33.771Z,9.97
2018-08-20T05:07:02.378Z,11.70
2018-08-20T05:09:30.911Z,13.20
2018-08-20T05:11:59.529Z,14.53
2018-08-20T05:14:28.067Z,13.03
2018-08-20T05:16:56.608Z,12.27
2018-08-20T05:19:25.196Z,14.10
2018-08-20T05:21:53.686Z,11.60
2018-08-20T05:24:22.231Z,13.07
2018-08-20T05:26:50.755Z,20.53
2018-08-20T05:29:19.476Z,12.13
2018-08-20T05:31:47.997Z,12.07
2018-08-20T05:34:16.494Z,13.57
2018-08-20T05:36:45.015Z,14.53
2018-08-20T05:39:13.581Z,14.17
2018-08-20T05:41:42.070Z,13.60
2018-08-20T05:44:10.640Z,12.90
2018-08-20T05:46:39.211Z,12.60
2018-08-20T05:49:07.794Z,13.93
2018-08-20T05:51:36.276Z,15.40
2018-08-20T05:54:04.920Z,15.63
2018-08-20T05:56:33.397Z,10.77
2018-08-20T05:59:02.257Z,17.60
2018-08-20T06:01:31.160Z,12.23
2018-08-20T06:03:59.692Z,12.20
2018-08-20T06:06:28.477Z,12.33
2018-08-20T06:08:57.034Z,14.63
2018-08-20T06:11:25.529Z,12.70
2018-08-20T06:13:54.091Z,14.97
2018-08-20T06:16:22.586Z,15.30
2018-08-20T06:18:51.685Z,15.87
2018-08-20T06:21:20.242Z,24.03
2018-08-20T06:23:48.923Z,12.30
2018-08-20T06:26:17.507Z,12.93
2018-08-20T06:28:46.035Z,12.00
2018-08-20T06:31:14.568Z,22.37
2018-08-20T06:33:43.088Z,18.00
2018-08-20T06:36:11.648Z,10.23
2018-08-20T06:38:40.178Z,12.63
2018-08-20T06:41:09.493Z,11.47
2018-08-20T06:43:38.030Z,19.00
2018-08-20T06:46:06.723Z,13.67
2018-08-20T06:48:35.826Z,18.70
2018-08-20T06:51:05.727Z,20.63
2018-08-20T06:53:34.243Z,12.40
2018-08-20T06:56:02.777Z,15.83
2018-08-20T06:58:31.285Z,11.53
2018-08-20T07:00:59.846Z,13.70
2018-08-20T07:03:28.398Z,14.47
2018-08-20T07:05:56.953Z,14.33
2018-08-20T07:08:25.718Z,13.90
2018-08-20T07:10:54.294Z,14.20
2018-08-20T07:13:36.308Z,18.93
2018-08-20T07:16:05.984Z,14.97
2018-08-20T07:18:34.628Z,14.80
2018-08-20T07:21:03.561Z,22.07
2018-08-20T07:23:32.341Z,15.90
2018-08-20T07:26:00.784Z,14.27
2018-08-20T07:28:31.159Z,15.60
2018-08-20T07:30:59.689Z,16.47
2018-08-20T07:33:28.267Z,15.43
2018-08-20T07:35:56.825Z,16.43
2018-08-20T07:38:25.442Z,15.20
2018-08-20T07:40:54.084Z,16.73
2018-08-20T07:43:22.590Z,16.93
2018-08-20T07:45:51.113Z,17.83
2018-08-20T07:48:19.692Z,16.13
2018-08-20T07:50:48.247Z,15.27
2018-08-20T07:53:16.854Z,16.90
2018-08-20T07:55:45.882Z,18.20
2018-08-20T07:58:14.736Z,18.67
2018-08-20T08:00:44.135Z,21.60
2018-08-20T08:03:12.709Z,16.13
2018-08-20T08:05:41.372Z,26.80
2018-08-20T08:08:09.999Z,13.27
2018-08-20T08:10:38.609Z,13.20
2018-08-20T08:13:07.229Z,17.10
2018-08-20T08:15:35.700Z,13.03
2018-08-20T08:18:04.332Z,12.83
2018-08-20T08:20:32.837Z,16.30
2018-08-20T08:23:01.432Z,20.23
2018-08-20T08:25:29.982Z,25.97
2018-08-20T08:27:58.543Z,16.10
2018-08-20T08:30:27.127Z,15.27
2018-08-20T08:32:55.675Z,18.10
2018-08-20T08:35:25.046Z,16.77
2018-08-20T08:37:53.640Z,16.00
2018-08-20T08:40:22.363Z,16.77
2018-08-20T08:42:50.827Z,16.93
2018-08-20T08:45:19.514Z,13.80
2018-08-20T08:47:48.049Z,14.73
2018-08-20T08:50:17.506Z,20.90
2018-08-20T08:52:46.675Z,19.70
2018-08-20T08:55:15.230Z,16.73
2018-08-20T08:57:43.750Z,16.50
2018-08-20T09:00:17.654Z,16.00
2018-08-20T09:02:46.428Z,16.73
2018-08-20T09:05:15.090Z,18.83
2018-08-20T09:07:44.154Z,18.23
2018-08-20T09:10:13.196Z,15.47
2018-08-20T09:12:41.934Z,14.20
2018-08-20T09:15:16.318Z,16.83
2018-08-20T09:17:45.241Z,13.97
2018-08-20T09:20:16.542Z,16.67
2018-08-20T09:22:46.062Z,21.00
2018-08-20T09:25:15.154Z,18.63
2018-08-20T09:27:44.895Z,15.80
2018-08-20T09:30:23.167Z,17.43
2018-08-20T09:32:51.834Z,17.50
2018-08-20T09:35:20.411Z,19.13
2018-08-20T09:37:48.984Z,24.67
2018-08-20T09:40:17.761Z,22.30
2018-08-20T09:42:46.452Z,18.80
2018-08-20T09:45:14.954Z,18.60
2018-08-20T09:47:44.177Z,25.60
2018-08-20T09:50:14.706Z,20.07
2018-08-20T09:52:43.613Z,22.00
2018-08-20T09:55:12.109Z,17.87
2018-08-20T09:57:41.000Z,16.43
2018-08-20T10:00:13.617Z,18.60
2018-08-20T10:02:42.844Z,17.33
2018-08-20T10:05:11.385Z,19.83
2018-08-20T10:07:40.164Z,19.77
2018-08-20T10:10:08.752Z,19.37
2018-08-20T10:12:37.441Z,18.40
2018-08-20T10:15:06.025Z,20.47
2018-08-20T10:17:35.059Z,14.90
2018-08-20T10:20:04.634Z,17.17
2018-08-20T10:22:33.162Z,17.37
2018-08-20T10:25:01.743Z,17.97
2018-08-20T10:27:30.230Z,18.33
2018-08-20T10:29:58.773Z,17.13
2018-08-20T10:32:27.297Z,16.93
2018-08-20T10:34:55.869Z,16.37
2018-08-20T10:37:24.602Z,17.67
2018-08-20T10:39:53.167Z,12.57
2018-08-20T10:42:21.793Z,18.70
2018-08-20T10:44:54.710Z,19.50
2018-08-20T10:47:23.553Z,21.43
2018-08-20T10:49:52.093Z,20.63
2018-08-20T10:52:20.600Z,14.20
2018-08-20T10:54:49.679Z,15.77
2018-08-20T10:57:18.516Z,12.00
2018-08-20T10:59:47.107Z,15.03
2018-08-20T11:02:15.619Z,14.33
2018-08-20T11:04:44.421Z,15.10
2018-08-20T11:07:13.000Z,14.83
2018-08-20T11:09:41.517Z,11.43
2018-08-20T11:12:10.132Z,14.27
2018-08-20T11:14:38.870Z,13.60
2018-08-20T11:17:07.511Z,11.80
2018-08-20T11:19:36.018Z,13.00
2018-08-20T11:22:04.603Z,17.80
2018-08-20T11:24:33.210Z,12.80
2018-08-20T11:27:01.837Z,15.20
2018-08-20T11:29:30.274Z,17.33
2018-08-20T11:31:58.954Z,16.37
2018-08-20T11:34:27.628Z,15.60
2018-08-20T11:36:56.311Z,13.57
2018-08-20T11:39:24.838Z,17.10
2018-08-20T11:41:53.345Z,13.13
2018-08-20T11:44:21.896Z,20.90
2018-08-20T11:46:50.486Z,15.47
2018-08-20T11:49:19.019Z,15.20
2018-08-20T11:51:47.510Z,15.63
2018-08-20T11:54:16.044Z,13.17
2018-08-20T11:56:44.798Z,18.13
2018-08-20T11:59:13.345Z,17.10
2018-08-20T12:01:41.833Z,10.37
2018-08-20T12:04:10.410Z,14.97
2018-08-20T12:06:38.928Z,16.30
2018-08-20T12:09:07.669Z,12.80
2018-08-20T12:11:36.392Z,16.70
2018-08-20T12:14:04.961Z,14.60
2018-08-20T12:16:33.509Z,11.23
2018-08-20T12:19:02.044Z,11.97
2018-08-20T12:21:30.536Z,14.00
2018-08-20T12:23:59.800Z,21.13
2018-08-20T12:26:28.307Z,9.43
2018-08-20T12:28:56.874Z,17.33
2018-08-20T12:31:25.416Z,12.07
2018-08-20T12:33:54.259Z,14.27
2018-08-20T12:36:22.797Z,12.70
2018-08-20T12:38:51.873Z,10.77
2018-08-20T12:41:20.586Z,18.50
2018-08-20T12:43:49.133Z,18.30
2018-08-20T12:46:19.745Z,10.03
2018-08-20T12:48:50.295Z,13.33
2018-08-20T12:51:20.367Z,16.27
2018-08-20T12:53:48.875Z,9.87
2018-08-20T12:56:17.815Z,10.40
2018-08-20T12:58:49.730Z,10.50
2018-08-20T13:01:18.674Z,11.70
2018-08-20T13:03:48.130Z,9.40
2018-08-20T13:06:16.883Z,13.20
2018-08-20T13:08:46.556Z,10.57
2018-08-20T13:11:15.635Z,12.37
2018-08-20T13:13:44.503Z,12.63
2018-08-20T13:16:13.217Z,11.50
2018-08-20T13:18:41.587Z,7.63
2018-08-20T13:21:10.158Z,6.07
2018-08-20T13:23:38.682Z,11.40
2018-08-20T13:26:07.338Z,6.83
2018-08-20T13:28:35.834Z,8.07
2018-08-20T13:31:04.619Z,8.23
2018-08-20T13:33:33.178Z,11.93
2018-08-20T13:36:01.753Z,9.03
2018-08-20T13:38:30.271Z,8.97
2018-08-20T13:40:58.848Z,8.93
2018-08-20T13:43:27.387Z,8.43
2018-08-20T13:45:56.015Z,14.60
2018-08-20T13:48:25.101Z,6.27
2018-08-20T13:50:54.771Z,10.83
2018-08-20T13:53:23.375Z,6.90
2018-08-20T13:55:51.979Z,5.77
2018-08-20T13:58:20.746Z,6.70
2018-08-20T14:00:49.363Z,10.60
2018-08-20T14:03:18.127Z,9.53
2018-08-20T14:05:46.709Z,6.97
2018-08-20T14:08:15.239Z,8.03
2018-08-20T14:10:43.802Z,10.23
2018-08-20T14:13:12.313Z,9.13
2018-08-20T14:15:40.890Z,6.73
2018-08-20T14:18:09.455Z,5.63
2018-08-20T14:20:38.028Z,8.20
2018-08-20T14:23:06.547Z,6.23
2018-08-20T14:25:35.098Z,6.83
2018-08-20T14:28:03.618Z,7.80
2018-08-20T14:30:32.225Z,9.13
2018-08-20T14:33:00.724Z,14.33
2018-08-20T14:35:29.277Z,6.13
2018-08-20T14:37:57.804Z,7.47
2018-08-20T14:40:26.434Z,5.80
2018-08-20T14:42:54.986Z,14.40
2018-08-20T14:45:23.632Z,10.80
2018-08-20T14:47:52.235Z,13.03
2018-08-20T14:50:20.817Z,12.07
2018-08-20T14:52:49.338Z,10.63
2018-08-20T14:55:17.915Z,6.97
2018-08-20T14:57:47.355Z,13.63
2018-08-20T15:00:16.062Z,7.97
2018-08-20T15:02:44.761Z,7.63
2018-08-20T15:05:13.310Z,6.93
2018-08-20T15:07:41.844Z,8.00
2018-08-20T15:10:10.400Z,10.00
2018-08-20T15:12:38.919Z,7.33
2018-08-20T15:15:08.606Z,9.67
2018-08-20T15:17:37.118Z,6.70
2018-08-20T15:20:07.153Z,14.97
2018-08-20T15:22:35.703Z,6.70
2018-08-20T15:25:04.554Z,7.40
2018-08-20T15:27:33.136Z,4.93
2018-08-20T15:30:02.751Z,6.10
2018-08-20T15:32:31.351Z,6.30
2018-08-20T15:34:59.909Z,6.80
2018-08-20T15:37:28.427Z,9.53
2018-08-20T15:39:56.994Z,9.53
2018-08-20T15:42:25.572Z,14.13
2018-08-20T15:44:54.119Z,8.23
2018-08-20T15:47:22.629Z,8.80
2018-08-20T15:49:51.195Z,9.63
2018-08-20T15:52:19.887Z,11.57
2018-08-20T15:54:48.379Z,9.70
2018-08-20T15:57:16.976Z,6.10
2018-08-20T15:59:45.748Z,11.90
2018-08-20T16:02:14.457Z,10.10
2018-08-20T16:04:43.164Z,9.33
2018-08-20T16:07:12.013Z,11.57
2018-08-20T16:09:40.545Z,10.77
2018-08-20T16:12:09.106Z,15.47
2018-08-20T16:14:37.598Z,10.53
2018-08-20T16:17:06.168Z,5.60
2018-08-20T16:19:34.682Z,7.20
2018-08-20T16:22:03.645Z,4.50
2018-08-20T16:24:32.159Z,7.03
2018-08-20T16:27:00.814Z,7.30
2018-08-20T16:29:29.472Z,4.87
2018-08-20T16:31:58.053Z,6.63
2018-08-20T16:34:26.602Z,8.50
2018-08-20T16:36:55.216Z,5.50
2018-08-20T16:39:23.917Z,11.00
2018-08-20T16:41:52.397Z,6.10
2018-08-20T16:44:20.935Z,9.97
2018-08-20T16:46:49.447Z,5.00
2018-08-20T16:49:18.233Z,3.97
2018-08-20T16:51:47.425Z,5.70
2018-08-20T16:54:15.969Z,6.07
2018-08-20T16:56:45.094Z,7.90
2018-08-20T16:59:13.829Z,9.93
2018-08-20T17:01:42.341Z,14.17
2018-08-20T17:04:27.551Z,8.20
2018-08-20T17:06:57.421Z,7.13
2018-08-20T17:09:26.088Z,4.10
2018-08-20T17:11:55.734Z,11.80
2018-08-20T17:14:24.492Z,8.13
2018-08-20T17:16:53.327Z,5.77
2018-08-20T17:19:22.041Z,6.73
2018-08-20T17:21:50.695Z,5.47
2018-08-20T17:24:25.778Z,3.70
2018-08-20T17:26:54.519Z,3.57
2018-08-20T17:29:23.374Z,7.73
2018-08-20T17:31:52.424Z,5.40
2018-08-20T17:34:21.533Z,12.40
2018-08-20T17:36:52.006Z,7.63
2018-08-20T17:39:20.990Z,4.30
2018-08-20T17:41:49.697Z,3.00
2018-08-20T17:44:20.599Z,9.20
2018-08-20T17:46:49.168Z,5.67
2018-08-20T17:49:23.145Z,9.40
2018-08-20T17:51:51.850Z,2.63
2018-08-20T17:54:20.498Z,7.63
2018-08-20T17:56:49.103Z,11.57
2018-08-20T17:59:17.954Z,6.00
2018-08-20T18:01:46.515Z,5.67
2018-08-20T18:04:15.192Z,4.53
2018-08-20T18:06:52.595Z,4.57
2018-08-20T18:09:21.173Z,6.40
2018-08-20T18:11:54.157Z,4.80
2018-08-20T18:14:24.032Z,7.10
2018-08-20T18:16:52.730Z,3.20
2018-08-20T18:19:21.289Z,8.00
2018-08-20T18:21:50.096Z,5.03
2018-08-20T18:24:20.043Z,12.30
2018-08-20T18:26:50.992Z,10.60
2018-08-20T18:29:19.525Z,3.93
2018-08-20T18:31:59.421Z,6.60
2018-08-20T18:34:27.949Z,7.30
2018-08-20T18:36:56.535Z,4.03
2018-08-20T18:39:25.099Z,4.63
2018-08-20T18:42:01.932Z,4.50
2018-08-20T18:44:31.318Z,5.57
2018-08-20T18:46:59.920Z,3.27
2018-08-20T18:49:28.551Z,12.03
2018-08-20T18:52:07.456Z,5.57
2018-08-20T18:54:37.739Z,5.70
2018-08-20T18:57:06.906Z,4.13
2018-08-20T18:59:37.449Z,3.07
2018-08-20T19:02:07.308Z,10.23
2018-08-20T19:04:41.496Z,4.13
2018-08-20T19:07:11.538Z,2.53
2018-08-20T19:09:41.207Z,13.10
2018-08-20T19:12:10.551Z,3.60
2018-08-20T19:14:39.209Z,2.70
2018-08-20T19:17:18.297Z,5.57
2018-08-20T19:19:49.295Z,3.03
2018-08-20T19:22:23.389Z,4.90
2018-08-20T19:24:52.230Z,4.60
2018-08-20T19:27:20.857Z,7.63
2018-08-20T19:29:49.622Z,2.53
2018-08-20T19:32:18.215Z,4.17
2018-08-20T19:34:47.003Z,4.23
2018-08-20T19:37:15.602Z,5.77
2018-08-20T19:39:44.226Z,6.43
2018-08-20T19:42:19.632Z,4.33
2018-08-20T19:44:48.279Z,3.00
2018-08-20T19:47:16.976Z,2.40
2018-08-20T19:49:45.770Z,8.97
2018-08-20T19:52:14.498Z,7.60
2018-08-20T19:54:43.071Z,3.90
2018-08-20T19:57:11.618Z,6.33
2018-08-20T19:59:40.792Z,11.53
2018-08-20T20:02:11.583Z,19.13
2018-08-20T20:04:40.473Z,3.90
2018-08-20T20:07:09.425Z,6.93
2018-08-20T20:09:38.379Z,3.90
2018-08-20T20:12:07.239Z,3.93
2018-08-20T20:14:43.064Z,10.63
2018-08-20T20:17:11.947Z,6.23
2018-08-20T20:19:40.488Z,8.90
2018-08-20T20:22:16.488Z,7.13
2018-08-20T20:24:45.200Z,6.47
2018-08-20T20:27:13.772Z,8.10
2018-08-20T20:29:42.436Z,5.67
2018-08-20T20:32:11.032Z,5.83
2018-08-20T20:34:39.634Z,10.77
2018-08-20T20:37:08.343Z,4.20
2018-08-20T20:39:40.212Z,10.63
2018-08-20T20:42:08.988Z,8.47
2018-08-20T20:44:38.325Z,4.37
2018-08-20T20:47:07.301Z,3.63
2018-08-20T20:49:35.998Z,7.77
2018-08-20T20:52:04.562Z,3.80
2018-08-20T20:54:33.134Z,4.23
2018-08-20T20:57:01.636Z,3.13
2018-08-20T20:59:30.561Z,13.27
2018-08-20T21:01:59.158Z,2.97
2018-08-20T21:04:27.891Z,5.30
2018-08-20T21:06:56.427Z,5.57
2018-08-20T21:09:25.269Z,3.50
2018-08-20T21:11:53.929Z,5.47
2018-08-20T21:14:22.490Z,5.43
2018-08-20T21:16:51.072Z,8.93
2018-08-20T21:19:19.636Z,8.93
2018-08-20T21:21:48.222Z,4.10
2018-08-20T21:24:16.723Z,3.57
2018-08-20T21:26:45.270Z,5.83
2018-08-20T21:29:13.756Z,12.47
2018-08-20T21:31:47.692Z,5.03
2018-08-20T21:34:16.223Z,4.20
2018-08-20T21:36:44.771Z,3.40
2018-08-20T21:39:13.262Z,3.10
2018-08-20T21:41:41.819Z,4.00
2018-08-20T21:44:10.371Z,4.20
2018-08-20T21:46:39.030Z,3.83
2018-08-20T21:49:07.610Z,4.70
2018-08-20T21:51:42.218Z,4.13
2018-08-20T21:54:10.732Z,13.93
2018-08-20T21:56:49.621Z,4.67
2018-08-20T21:59:18.837Z,6.60
2018-08-20T22:01:47.433Z,8.70
2018-08-20T22:04:18.280Z,6.93
2018-08-20T22:06:47.402Z,4.80
2018-08-20T22:09:15.890Z,4.97
2018-08-20T22:11:44.499Z,4.53
2018-08-20T22:14:13.026Z,4.90
2018-08-20T22:16:41.581Z,3.67
2018-08-20T22:19:10.098Z,4.83
2018-08-20T22:21:38.661Z,7.83
2018-08-20T22:24:07.162Z,4.10
2018-08-20T22:26:39.287Z,4.93
2018-08-20T22:29:07.983Z,3.73
2018-08-20T22:31:37.321Z,4.17
2018-08-20T22:34:06.374Z,3.47
2018-08-20T22:36:34.931Z,8.43
2018-08-20T22:39:05.175Z,3.50
2018-08-20T22:41:33.695Z,6.60
2018-08-20T22:44:02.414Z,4.20
2018-08-20T22:46:31.223Z,4.80
2018-08-20T22:49:00.746Z,5.53
2018-08-20T22:51:30.470Z,5.70
2018-08-20T22:54:00.679Z,4.03
2018-08-20T22:56:33.423Z,6.10
2018-08-20T22:59:06.373Z,5.90
2018-08-20T23:01:34.989Z,7.30
2018-08-20T23:04:03.681Z,5.83
2018-08-20T23:06:32.220Z,5.03
2018-08-20T23:09:14.946Z,5.20
2018-08-20T23:11:43.545Z,4.30
2018-08-20T23:14:12.993Z,5.70
2018-08-20T23:16:41.895Z,14.53
2018-08-20T23:19:10.974Z,5.90
2018-08-20T23:21:42.947Z,6.70
2018-08-20T23:24:12.469Z,7.27
2018-08-20T23:26:41.682Z,7.20
2018-08-20T23:29:10.620Z,7.33
2018-08-20T23:31:39.763Z,7.00
2018-08-20T23:34:10.760Z,4.80
2018-08-20T23:36:39.974Z,5.30
2018-08-20T23:39:09.967Z,11.43
2018-08-20T23:41:38.815Z,5.63
2018-08-20T23:44:07.575Z,6.80
2018-08-20T23:46:39.671Z,9.90
2018-08-20T23:49:08.250Z,6.80
2018-08-20T23:51:36.833Z,5.40
2018-08-20T23:54:05.604Z,7.83
2018-08-20T23:56:34.236Z,6.90
2018-08-20T23:59:02.771Z,6.33
